sensor_id;sensor_type;location;lat;lon;timestamp;pressure;altitude;pressure_sealevel;temperature;humidity
13869;BME280;7004;48.206;16.402;2022-11-20T00:01:23;99393.72;;;1.64;86.19
13869;BME280;7004;48.206;16.402;2022-11-20T00:03:52;99395.72;;;1.27;84.89
13869;BME280;7004;48.206;16.402;2022-11-20T00:06:21;99384.72;;;1.18;85.97
13869;BME280;7004;48.206;16.402;2022-11-20T00:08:47;99380.47;;;1.43;85.93
13869;BME280;7004;48.206;16.402;2022-11-20T00:11:21;99374.72;;;1.32;86.00
13869;BME280;7004;48.206;16.402;2022-11-20T00:13:52;99366.06;;;1.31;85.13
13869;BME280;7004;48.206;16.402;2022-11-20T00:16:21;99374.59;;;1.63;85.32
13869;BME280;7004;48.206;16.402;2022-11-20T00:18:48;99374.47;;;1.40;86.88
13869;BME280;7004;48.206;16.402;2022-11-20T00:21:24;99385.31;;;1.54;84.91
13869;BME280;7004;48.206;16.402;2022-11-20T00:23:53;99392.34;;;1.24;84.47
13869;BME280;7004;48.206;16.402;2022-11-20T00:26:21;99391.00;;;1.11;86.36
13869;BME280;7004;48.206;16.402;2022-11-20T00:28:54;99385.81;;;1.11;87.79
13869;BME280;7004;48.206;16.402;2022-11-20T00:31:21;99392.66;;;1.13;86.27
13869;BME280;7004;48.206;16.402;2022-11-20T00:33:47;99388.47;;;1.09;86.55
13869;BME280;7004;48.206;16.402;2022-11-20T00:36:17;99382.63;;;1.29;86.13
13869;BME280;7004;48.206;16.402;2022-11-20T00:38:44;99388.28;;;1.43;85.31
13869;BME280;7004;48.206;16.402;2022-11-20T00:41:14;99394.97;;;1.50;84.83
13869;BME280;7004;48.206;16.402;2022-11-20T00:43:41;99409.63;;;1.26;84.72
13869;BME280;7004;48.206;16.402;2022-11-20T00:46:19;99412.19;;;1.28;85.20
13869;BME280;7004;48.206;16.402;2022-11-20T00:48:46;99420.50;;;1.11;85.58
13869;BME280;7004;48.206;16.402;2022-11-20T00:51:16;99420.06;;;0.97;86.63
13869;BME280;7004;48.206;16.402;2022-11-20T00:53:43;99425.03;;;1.61;84.34
13869;BME280;7004;48.206;16.402;2022-11-20T00:56:15;99428.81;;;1.52;83.34
13869;BME280;7004;48.206;16.402;2022-11-20T00:58:44;99435.78;;;1.51;83.48
13869;BME280;7004;48.206;16.402;2022-11-20T01:01:19;99434.22;;;1.74;83.51
13869;BME280;7004;48.206;16.402;2022-11-20T01:03:50;99435.78;;;1.51;84.94
13869;BME280;7004;48.206;16.402;2022-11-20T01:06:32;99427.81;;;1.28;85.23
13869;BME280;7004;48.206;16.402;2022-11-20T01:09:03;99428.69;;;1.27;85.38
13869;BME280;7004;48.206;16.402;2022-11-20T01:11:36;99433.59;;;1.38;83.75
13869;BME280;7004;48.206;16.402;2022-11-20T01:14:06;99428.84;;;1.22;84.03
13869;BME280;7004;48.206;16.402;2022-11-20T01:16:37;99418.84;;;1.37;84.44
13869;BME280;7004;48.206;16.402;2022-11-20T01:19:07;99427.97;;;1.51;84.31
13869;BME280;7004;48.206;16.402;2022-11-20T01:21:37;99432.78;;;1.64;83.52
13869;BME280;7004;48.206;16.402;2022-11-20T01:24:05;99434.34;;;1.41;85.92
13869;BME280;7004;48.206;16.402;2022-11-20T01:26:36;99443.28;;;1.61;85.57
13869;BME280;7004;48.206;16.402;2022-11-20T01:29:03;99439.63;;;1.10;89.31
13869;BME280;7004;48.206;16.402;2022-11-20T01:31:36;99428.69;;;1.27;89.17
13869;BME280;7004;48.206;16.402;2022-11-20T01:34:12;99433.09;;;1.53;87.85
13869;BME280;7004;48.206;16.402;2022-11-20T01:36:40;99423.22;;;1.36;87.51
13869;BME280;7004;48.206;16.402;2022-11-20T01:39:22;99424.91;;;1.37;86.22
13869;BME280;7004;48.206;16.402;2022-11-20T01:41:51;99421.94;;;1.49;88.25
13869;BME280;7004;48.206;16.402;2022-11-20T01:45:00;99422.94;;;1.45;87.21
13869;BME280;7004;48.206;16.402;2022-11-20T01:47:45;99421.19;;;1.18;86.79
13869;BME280;7004;48.206;16.402;2022-11-20T01:50:33;99419.94;;;1.01;87.27
13869;BME280;7004;48.206;16.402;2022-11-20T01:53:05;99414.66;;;1.33;86.79
13869;BME280;7004;48.206;16.402;2022-11-20T01:55:40;99410.75;;;1.18;87.06
13869;BME280;7004;48.206;16.402;2022-11-20T01:58:07;99418.34;;;1.25;89.16
13869;BME280;7004;48.206;16.402;2022-11-20T02:00:34;99416.63;;;1.24;88.82
13869;BME280;7004;48.206;16.402;2022-11-20T02:03:07;99415.97;;;1.46;88.41
13869;BME280;7004;48.206;16.402;2022-11-20T02:05:46;99426.69;;;1.63;87.31
13869;BME280;7004;48.206;16.402;2022-11-20T02:08:20;99431.34;;;1.25;88.35
13869;BME280;7004;48.206;16.402;2022-11-20T02:10:48;99438.50;;;1.19;88.35
13869;BME280;7004;48.206;16.402;2022-11-20T02:13:15;99436.56;;;1.25;88.76
13869;BME280;7004;48.206;16.402;2022-11-20T02:16:01;99440.25;;;1.48;88.92
13869;BME280;7004;48.206;16.402;2022-11-20T02:18:30;99430.88;;;1.13;90.01
13869;BME280;7004;48.206;16.402;2022-11-20T02:21:06;99436.66;;;1.22;89.48
13869;BME280;7004;48.206;16.402;2022-11-20T02:26:18;99428.50;;;1.05;91.46
13869;BME280;7004;48.206;16.402;2022-11-20T02:28:46;99433.50;;;1.41;89.56
13869;BME280;7004;48.206;16.402;2022-11-20T02:31:13;99436.78;;;1.18;92.61
13869;BME280;7004;48.206;16.402;2022-11-20T02:33:39;99432.97;;;1.29;93.83
13869;BME280;7004;48.206;16.402;2022-11-20T02:36:08;99438.69;;;1.13;93.71
13869;BME280;7004;48.206;16.402;2022-11-20T02:38:37;99436.00;;;1.44;92.43
13869;BME280;7004;48.206;16.402;2022-11-20T02:41:03;99437.00;;;1.40;91.45
13869;BME280;7004;48.206;16.402;2022-11-20T02:43:30;99431.03;;;1.36;92.29
13869;BME280;7004;48.206;16.402;2022-11-20T02:45:56;99416.34;;;1.34;91.37
13869;BME280;7004;48.206;16.402;2022-11-20T02:48:22;99414.84;;;1.55;90.80
13869;BME280;7004;48.206;16.402;2022-11-20T02:50:48;99419.53;;;1.71;91.32
13869;BME280;7004;48.206;16.402;2022-11-20T02:53:15;99416.38;;;1.32;92.07
13869;BME280;7004;48.206;16.402;2022-11-20T02:55:41;99417.63;;;1.48;93.85
13869;BME280;7004;48.206;16.402;2022-11-20T02:58:10;99414.97;;;1.50;92.07
13869;BME280;7004;48.206;16.402;2022-11-20T03:00:36;99414.69;;;1.31;91.25
13869;BME280;7004;48.206;16.402;2022-11-20T03:03:02;99415.03;;;1.48;90.52
13869;BME280;7004;48.206;16.402;2022-11-20T03:05:28;99412.13;;;1.29;92.25
13869;BME280;7004;48.206;16.402;2022-11-20T03:07:54;99401.47;;;1.37;91.31
13869;BME280;7004;48.206;16.402;2022-11-20T03:10:20;99398.34;;;1.54;91.80
13869;BME280;7004;48.206;16.402;2022-11-20T03:12:47;99381.69;;;1.58;90.68
13869;BME280;7004;48.206;16.402;2022-11-20T03:15:18;99386.03;;;1.59;91.18
13869;BME280;7004;48.206;16.402;2022-11-20T03:17:45;99373.16;;;1.55;90.78
13869;BME280;7004;48.206;16.402;2022-11-20T03:20:12;99373.97;;;1.57;92.15
13869;BME280;7004;48.206;16.402;2022-11-20T03:22:38;99374.41;;;1.69;91.52
13869;BME280;7004;48.206;16.402;2022-11-20T03:25:05;99379.13;;;1.85;91.61
13869;BME280;7004;48.206;16.402;2022-11-20T03:27:35;99377.03;;;1.69;91.85
13869;BME280;7004;48.206;16.402;2022-11-20T03:30:03;99374.84;;;1.56;90.96
13869;BME280;7004;48.206;16.402;2022-11-20T03:32:30;99374.09;;;1.79;91.32
13869;BME280;7004;48.206;16.402;2022-11-20T03:34:56;99364.13;;;1.65;90.43
13869;BME280;7004;48.206;16.402;2022-11-20T03:37:23;99367.03;;;1.82;91.05
13869;BME280;7004;48.206;16.402;2022-11-20T03:39:49;99370.34;;;1.61;94.57
13869;BME280;7004;48.206;16.402;2022-11-20T03:42:14;99368.78;;;1.55;94.81
13869;BME280;7004;48.206;16.402;2022-11-20T03:44:59;99379.78;;;1.65;97.91
13869;BME280;7004;48.206;16.402;2022-11-20T03:47:26;99385.56;;;1.18;100.00
13869;BME280;7004;48.206;16.402;2022-11-20T03:49:51;99375.06;;;1.21;100.00
13869;BME280;7004;48.206;16.402;2022-11-20T03:52:18;99378.75;;;1.42;100.00
13869;BME280;7004;48.206;16.402;2022-11-20T03:54:44;99371.84;;;1.13;100.00
13869;BME280;7004;48.206;16.402;2022-11-20T03:57:10;99368.28;;;1.16;100.00
13869;BME280;7004;48.206;16.402;2022-11-20T03:59:36;99370.88;;;1.17;100.00
13869;BME280;7004;48.206;16.402;2022-11-20T04:02:02;99366.03;;;1.05;100.00
13869;BME280;7004;48.206;16.402;2022-11-20T04:04:28;99367.81;;;1.03;100.00
13869;BME280;7004;48.206;16.402;2022-11-20T04:06:54;99358.59;;;1.47;100.00
13869;BME280;7004;48.206;16.402;2022-11-20T04:09:20;99353.22;;;1.53;100.00
13869;BME280;7004;48.206;16.402;2022-11-20T04:11:46;99355.84;;;1.25;100.00
13869;BME280;7004;48.206;16.402;2022-11-20T04:14:14;99358.06;;;1.09;100.00
13869;BME280;7004;48.206;16.402;2022-11-20T04:16:41;99352.97;;;1.06;100.00
13869;BME280;7004;48.206;16.402;2022-11-20T04:19:12;99344.75;;;1.19;100.00
13869;BME280;7004;48.206;16.402;2022-11-20T04:21:38;99340.09;;;1.30;100.00
13869;BME280;7004;48.206;16.402;2022-11-20T04:24:05;99338.19;;;1.35;100.00
13869;BME280;7004;48.206;16.402;2022-11-20T04:26:32;99340.81;;;1.07;100.00
13869;BME280;7004;48.206;16.402;2022-11-20T04:28:59;99347.00;;;1.03;100.00
13869;BME280;7004;48.206;16.402;2022-11-20T04:31:30;99346.03;;;1.34;100.00
13869;BME280;7004;48.206;16.402;2022-11-20T04:34:03;99341.06;;;1.52;100.00
13869;BME280;7004;48.206;16.402;2022-11-20T04:36:29;99326.22;;;1.01;100.00
13869;BME280;7004;48.206;16.402;2022-11-20T04:38:58;99321.16;;;0.97;100.00
13869;BME280;7004;48.206;16.402;2022-11-20T04:41:29;99324.28;;;1.08;100.00
13869;BME280;7004;48.206;16.402;2022-11-20T04:43:59;99312.88;;;1.12;100.00
13869;BME280;7004;48.206;16.402;2022-11-20T04:46:30;99306.16;;;1.31;100.00
13869;BME280;7004;48.206;16.402;2022-11-20T04:48:58;99307.72;;;1.37;100.00
13869;BME280;7004;48.206;16.402;2022-11-20T04:51:25;99301.56;;;1.40;100.00
13869;BME280;7004;48.206;16.402;2022-11-20T04:53:51;99309.00;;;1.50;100.00
13869;BME280;7004;48.206;16.402;2022-11-20T04:56:17;99301.19;;;1.24;100.00
13869;BME280;7004;48.206;16.402;2022-11-20T04:58:44;99304.81;;;1.20;100.00
13869;BME280;7004;48.206;16.402;2022-11-20T05:01:17;99299.69;;;1.17;100.00
13869;BME280;7004;48.206;16.402;2022-11-20T05:03:44;99303.03;;;0.94;100.00
13869;BME280;7004;48.206;16.402;2022-11-20T05:06:16;99295.06;;;0.98;100.00
13869;BME280;7004;48.206;16.402;2022-11-20T05:08:43;99300.69;;;0.84;100.00
13869;BME280;7004;48.206;16.402;2022-11-20T05:11:13;99299.91;;;0.82;100.00
13869;BME280;7004;48.206;16.402;2022-11-20T05:13:40;99304.53;;;0.73;100.00
13869;BME280;7004;48.206;16.402;2022-11-20T05:16:26;99304.13;;;0.57;100.00
13869;BME280;7004;48.206;16.402;2022-11-20T05:18:53;99306.81;;;1.12;100.00
13869;BME280;7004;48.206;16.402;2022-11-20T05:21:20;99308.66;;;1.08;100.00
13869;BME280;7004;48.206;16.402;2022-11-20T05:23:47;99315.03;;;1.26;100.00
13869;BME280;7004;48.206;16.402;2022-11-20T05:26:18;99311.31;;;0.78;100.00
13869;BME280;7004;48.206;16.402;2022-11-20T05:28:44;99320.16;;;1.01;100.00
13869;BME280;7004;48.206;16.402;2022-11-20T05:31:14;99312.78;;;0.87;100.00
13869;BME280;7004;48.206;16.402;2022-11-20T05:33:43;99325.44;;;1.26;100.00
13869;BME280;7004;48.206;16.402;2022-11-20T05:36:11;99326.53;;;0.91;100.00
13869;BME280;7004;48.206;16.402;2022-11-20T05:38:38;99333.72;;;0.82;100.00
13869;BME280;7004;48.206;16.402;2022-11-20T05:41:15;99327.09;;;1.00;100.00
13869;BME280;7004;48.206;16.402;2022-11-20T05:43:44;99326.94;;;0.77;100.00
13869;BME280;7004;48.206;16.402;2022-11-20T05:46:14;99322.28;;;0.88;100.00
13869;BME280;7004;48.206;16.402;2022-11-20T05:48:42;99332.13;;;0.78;100.00
13869;BME280;7004;48.206;16.402;2022-11-20T05:51:11;99343.44;;;1.05;100.00
13869;BME280;7004;48.206;16.402;2022-11-20T05:53:38;99342.38;;;0.83;100.00
13869;BME280;7004;48.206;16.402;2022-11-20T05:56:14;99337.91;;;1.16;100.00
13869;BME280;7004;48.206;16.402;2022-11-20T05:58:40;99330.84;;;1.20;100.00
13869;BME280;7004;48.206;16.402;2022-11-20T06:01:22;99335.75;;;1.01;100.00
13869;BME280;7004;48.206;16.402;2022-11-20T06:03:50;99334.41;;;0.89;100.00
13869;BME280;7004;48.206;16.402;2022-11-20T06:06:18;99332.88;;;0.82;100.00
13869;BME280;7004;48.206;16.402;2022-11-20T06:08:44;99343.66;;;1.26;100.00
13869;BME280;7004;48.206;16.402;2022-11-20T06:11:13;99348.28;;;0.88;100.00
13869;BME280;7004;48.206;16.402;2022-11-20T06:13:40;99348.97;;;0.95;100.00
13869;BME280;7004;48.206;16.402;2022-11-20T06:16:06;99356.28;;;0.82;100.00
13869;BME280;7004;48.206;16.402;2022-11-20T06:18:32;99352.22;;;0.73;100.00
13869;BME280;7004;48.206;16.402;2022-11-20T06:21:18;99346.34;;;0.96;100.00
13869;BME280;7004;48.206;16.402;2022-11-20T06:23:44;99349.16;;;0.89;100.00
13869;BME280;7004;48.206;16.402;2022-11-20T06:26:17;99354.22;;;0.93;100.00
13869;BME280;7004;48.206;16.402;2022-11-20T06:28:44;99355.81;;;0.99;100.00
13869;BME280;7004;48.206;16.402;2022-11-20T06:31:13;99355.38;;;0.83;100.00
13869;BME280;7004;48.206;16.402;2022-11-20T06:33:41;99364.31;;;0.74;100.00
13869;BME280;7004;48.206;16.402;2022-11-20T06:36:08;99377.91;;;1.14;100.00
13869;BME280;7004;48.206;16.402;2022-11-20T06:38:35;99371.72;;;0.88;100.00
13869;BME280;7004;48.206;16.402;2022-11-20T06:41:02;99377.53;;;0.68;100.00
13869;BME280;7004;48.206;16.402;2022-11-20T06:43:29;99377.41;;;0.73;100.00
13869;BME280;7004;48.206;16.402;2022-11-20T06:45:57;99387.69;;;1.05;100.00
13869;BME280;7004;48.206;16.402;2022-11-20T06:48:27;99381.72;;;1.02;100.00
13869;BME280;7004;48.206;16.402;2022-11-20T06:50:53;99386.91;;;0.72;100.00
13869;BME280;7004;48.206;16.402;2022-11-20T06:53:19;99396.28;;;0.78;100.00
13869;BME280;7004;48.206;16.402;2022-11-20T06:55:46;99390.41;;;1.30;100.00
13869;BME280;7004;48.206;16.402;2022-11-20T06:58:13;99397.94;;;1.12;100.00
13869;BME280;7004;48.206;16.402;2022-11-20T07:00:40;99393.34;;;1.20;100.00
13869;BME280;7004;48.206;16.402;2022-11-20T07:03:09;99404.22;;;1.04;100.00
13869;BME280;7004;48.206;16.402;2022-11-20T07:05:36;99406.25;;;1.23;100.00
13869;BME280;7004;48.206;16.402;2022-11-20T07:08:03;99411.75;;;1.14;100.00
13869;BME280;7004;48.206;16.402;2022-11-20T07:10:31;99417.50;;;1.25;100.00
13869;BME280;7004;48.206;16.402;2022-11-20T07:12:57;99413.50;;;1.13;100.00
13869;BME280;7004;48.206;16.402;2022-11-20T07:15:25;99414.75;;;1.00;100.00
13869;BME280;7004;48.206;16.402;2022-11-20T07:17:52;99415.44;;;1.35;100.00
13869;BME280;7004;48.206;16.402;2022-11-20T07:20:18;99414.53;;;1.07;100.00
13869;BME280;7004;48.206;16.402;2022-11-20T07:22:44;99418.75;;;1.12;100.00
13869;BME280;7004;48.206;16.402;2022-11-20T07:25:11;99410.78;;;1.16;100.00
13869;BME280;7004;48.206;16.402;2022-11-20T07:27:37;99415.53;;;1.31;100.00
13869;BME280;7004;48.206;16.402;2022-11-20T07:30:04;99414.97;;;1.22;100.00
13869;BME280;7004;48.206;16.402;2022-11-20T07:32:30;99423.81;;;1.44;100.00
13869;BME280;7004;48.206;16.402;2022-11-20T07:34:57;99424.53;;;1.49;100.00
13869;BME280;7004;48.206;16.402;2022-11-20T07:37:23;99417.72;;;1.17;100.00
13869;BME280;7004;48.206;16.402;2022-11-20T07:39:49;99428.41;;;1.08;100.00
13869;BME280;7004;48.206;16.402;2022-11-20T07:42:15;99428.38;;;1.09;100.00
13869;BME280;7004;48.206;16.402;2022-11-20T07:44:41;99433.66;;;1.35;100.00
13869;BME280;7004;48.206;16.402;2022-11-20T07:47:07;99428.69;;;1.27;100.00
13869;BME280;7004;48.206;16.402;2022-11-20T07:49:33;99440.81;;;0.98;100.00
13869;BME280;7004;48.206;16.402;2022-11-20T07:51:59;99431.72;;;1.13;100.00
13869;BME280;7004;48.206;16.402;2022-11-20T07:54:26;99434.69;;;1.59;100.00
13869;BME280;7004;48.206;16.402;2022-11-20T07:56:52;99425.81;;;1.36;100.00
13869;BME280;7004;48.206;16.402;2022-11-20T07:59:19;99436.72;;;1.19;100.00
13869;BME280;7004;48.206;16.402;2022-11-20T08:01:45;99435.50;;;1.33;100.00
13869;BME280;7004;48.206;16.402;2022-11-20T08:04:11;99443.44;;;1.28;100.00
13869;BME280;7004;48.206;16.402;2022-11-20T08:06:37;99441.19;;;1.16;100.00
13869;BME280;7004;48.206;16.402;2022-11-20T08:09:03;99437.78;;;1.14;100.00
13869;BME280;7004;48.206;16.402;2022-11-20T08:11:29;99429.25;;;1.38;100.00
13869;BME280;7004;48.206;16.402;2022-11-20T08:14:25;99436.94;;;1.41;100.00
13869;BME280;7004;48.206;16.402;2022-11-20T08:16:53;99424.41;;;1.26;100.00
13869;BME280;7004;48.206;16.402;2022-11-20T08:19:19;99427.72;;;1.59;100.00
13869;BME280;7004;48.206;16.402;2022-11-20T08:21:45;99424.59;;;1.48;100.00
13869;BME280;7004;48.206;16.402;2022-11-20T08:24:12;99425.09;;;1.87;98.77
13869;BME280;7004;48.206;16.402;2022-11-20T08:26:39;99428.06;;;1.75;97.73
13869;BME280;7004;48.206;16.402;2022-11-20T08:29:06;99431.78;;;1.40;100.00
13869;BME280;7004;48.206;16.402;2022-11-20T08:31:34;99440.78;;;1.58;99.77
13869;BME280;7004;48.206;16.402;2022-11-20T08:34:00;99433.28;;;1.75;98.95
13869;BME280;7004;48.206;16.402;2022-11-20T08:36:26;99438.59;;;1.72;99.57
13869;BME280;7004;48.206;16.402;2022-11-20T08:38:54;99443.69;;;1.77;98.73
13869;BME280;7004;48.206;16.402;2022-11-20T08:41:22;99431.53;;;1.47;98.99
13869;BME280;7004;48.206;16.402;2022-11-20T08:44:00;99435.81;;;1.50;99.21
13869;BME280;7004;48.206;16.402;2022-11-20T08:46:41;99441.81;;;1.52;99.47
13869;BME280;7004;48.206;16.402;2022-11-20T08:49:13;99441.19;;;1.45;99.22
13869;BME280;7004;48.206;16.402;2022-11-20T08:51:40;99442.16;;;1.69;98.85
13869;BME280;7004;48.206;16.402;2022-11-20T08:54:06;99444.16;;;1.61;99.37
13869;BME280;7004;48.206;16.402;2022-11-20T08:56:33;99438.16;;;1.58;98.97
13869;BME280;7004;48.206;16.402;2022-11-20T08:58:59;99434.66;;;1.87;98.44
13869;BME280;7004;48.206;16.402;2022-11-20T09:01:26;99433.91;;;1.55;98.86
13869;BME280;7004;48.206;16.402;2022-11-20T09:03:52;99432.06;;;1.87;98.29
13869;BME280;7004;48.206;16.402;2022-11-20T09:06:18;99431.19;;;1.86;98.89
13869;BME280;7004;48.206;16.402;2022-11-20T09:08:44;99432.13;;;1.84;98.22
13869;BME280;7004;48.206;16.402;2022-11-20T09:11:10;99414.69;;;1.59;100.00
13869;BME280;7004;48.206;16.402;2022-11-20T09:13:37;99412.41;;;1.77;98.89
13869;BME280;7004;48.206;16.402;2022-11-20T09:16:07;99423.84;;;2.24;98.13
13869;BME280;7004;48.206;16.402;2022-11-20T09:18:35;99432.38;;;2.29;100.00
13869;BME280;7004;48.206;16.402;2022-11-20T09:21:10;99426.06;;;2.10;100.00
13869;BME280;7004;48.206;16.402;2022-11-20T09:23:38;99434.50;;;1.91;99.45
13869;BME280;7004;48.206;16.402;2022-11-20T09:26:11;99423.34;;;1.86;100.00
13869;BME280;7004;48.206;16.402;2022-11-20T09:28:38;99421.41;;;1.66;100.00
13869;BME280;7004;48.206;16.402;2022-11-20T09:31:11;99419.44;;;1.46;100.00
13869;BME280;7004;48.206;16.402;2022-11-20T09:33:42;99418.16;;;1.86;100.00
13869;BME280;7004;48.206;16.402;2022-11-20T09:36:08;99406.66;;;1.65;100.00
13869;BME280;7004;48.206;16.402;2022-11-20T09:38:34;99423.63;;;1.50;100.00
13869;BME280;7004;48.206;16.402;2022-11-20T09:41:05;99418.00;;;1.64;100.00
13869;BME280;7004;48.206;16.402;2022-11-20T09:55:49;99402.16;;;1.97;100.00
13869;BME280;7004;48.206;16.402;2022-11-20T10:01:15;99407.88;;;2.08;98.50
13869;BME280;7004;48.206;16.402;2022-11-20T10:04:03;99401.94;;;2.28;98.83
13869;BME280;7004;48.206;16.402;2022-11-20T10:06:34;99394.94;;;2.30;99.83
13869;BME280;7004;48.206;16.402;2022-11-20T10:09:14;99392.78;;;1.91;100.00
13869;BME280;7004;48.206;16.402;2022-11-20T10:12:16;99387.59;;;2.16;100.00
13869;BME280;7004;48.206;16.402;2022-11-20T10:18:19;99385.41;;;2.29;99.95
13869;BME280;7004;48.206;16.402;2022-11-20T10:29:43;99376.69;;;2.30;98.05
13869;BME280;7004;48.206;16.402;2022-11-20T10:32:16;99377.31;;;2.62;98.16
13869;BME280;7004;48.206;16.402;2022-11-20T10:35:00;99378.81;;;2.44;98.13
13869;BME280;7004;48.206;16.402;2022-11-20T10:37:29;99380.50;;;2.45;98.09
13869;BME280;7004;48.206;16.402;2022-11-20T10:40:23;99379.72;;;2.43;97.85
13869;BME280;7004;48.206;16.402;2022-11-20T10:43:04;99383.22;;;2.42;99.87
13869;BME280;7004;48.206;16.402;2022-11-20T10:46:25;99378.97;;;2.39;98.05
13869;BME280;7004;48.206;16.402;2022-11-20T10:48:45;99374.97;;;2.54;98.03
13869;BME280;7004;48.206;16.402;2022-11-20T10:51:43;99370.88;;;2.71;97.80
13869;BME280;7004;48.206;16.402;2022-11-20T10:54:35;99367.31;;;2.97;97.13
13869;BME280;7004;48.206;16.402;2022-11-20T11:00:09;99356.91;;;2.95;95.68
13869;BME280;7004;48.206;16.402;2022-11-20T11:02:47;99353.06;;;3.27;93.86
13869;BME280;7004;48.206;16.402;2022-11-20T11:07:50;99353.88;;;3.50;92.95
13869;BME280;7004;48.206;16.402;2022-11-20T11:10:34;99342.47;;;3.53;92.92
13869;BME280;7004;48.206;16.402;2022-11-20T11:13:02;99351.66;;;3.41;93.33
13869;BME280;7004;48.206;16.402;2022-11-20T11:15:38;99345.56;;;3.18;94.69
13869;BME280;7004;48.206;16.402;2022-11-20T11:18:22;99347.81;;;3.49;93.29
13869;BME280;7004;48.206;16.402;2022-11-20T11:20:52;99344.06;;;3.35;94.71
13869;BME280;7004;48.206;16.402;2022-11-20T11:23:34;99338.41;;;3.45;94.19
13869;BME280;7004;48.206;16.402;2022-11-20T11:26:03;99348.59;;;3.08;96.39
13869;BME280;7004;48.206;16.402;2022-11-20T11:28:30;99344.88;;;3.57;94.80
13869;BME280;7004;48.206;16.402;2022-11-20T11:30:57;99336.69;;;3.66;93.49
13869;BME280;7004;48.206;16.402;2022-11-20T11:33:30;99331.19;;;3.93;92.55
13869;BME280;7004;48.206;16.402;2022-11-20T11:36:04;99335.75;;;3.67;93.95
13869;BME280;7004;48.206;16.402;2022-11-20T11:38:43;99343.53;;;3.69;95.25
13869;BME280;7004;48.206;16.402;2022-11-20T11:41:18;99338.81;;;3.57;95.91
13869;BME280;7004;48.206;16.402;2022-11-20T11:43:57;99331.00;;;3.35;97.04
13869;BME280;7004;48.206;16.402;2022-11-20T11:46:55;99330.81;;;3.39;96.91
13869;BME280;7004;48.206;16.402;2022-11-20T11:49:22;99328.53;;;3.52;95.70
13869;BME280;7004;48.206;16.402;2022-11-20T11:52:10;99337.56;;;3.65;96.84
13869;BME280;7004;48.206;16.402;2022-11-20T11:55:02;99332.25;;;3.68;96.10
13869;BME280;7004;48.206;16.402;2022-11-20T12:00:13;99315.66;;;4.10;93.67
13869;BME280;7004;48.206;16.402;2022-11-20T12:05:35;99300.94;;;4.66;91.07
13869;BME280;7004;48.206;16.402;2022-11-20T12:16:16;99297.22;;;5.44;85.96
13869;BME280;7004;48.206;16.402;2022-11-20T12:18:49;99296.72;;;5.19;85.20
13869;BME280;7004;48.206;16.402;2022-11-20T12:21:31;99298.75;;;4.76;87.71
13869;BME280;7004;48.206;16.402;2022-11-20T12:25:41;99298.09;;;4.90;87.53
13869;BME280;7004;48.206;16.402;2022-11-20T12:30:51;99296.47;;;5.60;85.38
13869;BME280;7004;48.206;16.402;2022-11-20T12:36:40;99298.19;;;5.96;83.22
13869;BME280;7004;48.206;16.402;2022-11-20T12:45:28;99295.72;;;6.10;81.15
13869;BME280;7004;48.206;16.402;2022-11-20T12:51:32;99281.97;;;6.38;80.45
13869;BME280;7004;48.206;16.402;2022-11-20T12:54:45;99279.81;;;6.13;80.66
13869;BME280;7004;48.206;16.402;2022-11-20T13:00:22;99277.06;;;6.15;82.79
13869;BME280;7004;48.206;16.402;2022-11-20T13:03:48;99262.72;;;6.22;80.59
13869;BME280;7004;48.206;16.402;2022-11-20T13:06:18;99267.78;;;6.58;79.80
13869;BME280;7004;48.206;16.402;2022-11-20T13:08:55;99269.38;;;6.45;80.90
13869;BME280;7004;48.206;16.402;2022-11-20T13:20:13;99257.81;;;6.31;81.34
13869;BME280;7004;48.206;16.402;2022-11-20T13:22:52;99258.13;;;5.75;83.99
13869;BME280;7004;48.206;16.402;2022-11-20T13:25:28;99261.84;;;6.05;83.46
13869;BME280;7004;48.206;16.402;2022-11-20T13:27:59;99265.91;;;5.41;85.46
13869;BME280;7004;48.206;16.402;2022-11-20T13:30:28;99261.06;;;6.03;84.41
13869;BME280;7004;48.206;16.402;2022-11-20T13:33:07;99258.84;;;5.61;86.06
13869;BME280;7004;48.206;16.402;2022-11-20T13:35:37;99253.56;;;5.78;86.28
13869;BME280;7004;48.206;16.402;2022-11-20T13:38:13;99257.50;;;5.69;86.63
13869;BME280;7004;48.206;16.402;2022-11-20T13:41:07;99253.88;;;5.55;87.58
13869;BME280;7004;48.206;16.402;2022-11-20T13:44:45;99252.50;;;5.65;86.86
13869;BME280;7004;48.206;16.402;2022-11-20T13:46:46;99246.97;;;5.71;86.50
13869;BME280;7004;48.206;16.402;2022-11-20T13:49:37;99244.09;;;5.41;88.53
13869;BME280;7004;48.206;16.402;2022-11-20T13:52:39;99243.28;;;5.58;89.29
13869;BME280;7004;48.206;16.402;2022-11-20T14:01:10;99236.31;;;5.57;88.68
13869;BME280;7004;48.206;16.402;2022-11-20T14:03:38;99236.16;;;5.42;89.73
13869;BME280;7004;48.206;16.402;2022-11-20T14:06:28;99226.59;;;5.59;90.38
13869;BME280;7004;48.206;16.402;2022-11-20T14:08:58;99227.00;;;6.35;96.40
13869;BME280;7004;48.206;16.402;2022-11-20T14:11:28;99221.94;;;6.79;94.06
13869;BME280;7004;48.206;16.402;2022-11-20T14:14:01;99221.94;;;6.95;87.52
13869;BME280;7004;48.206;16.402;2022-11-20T14:16:34;99217.44;;;6.82;89.85
13869;BME280;7004;48.206;16.402;2022-11-20T14:22:10;99221.75;;;6.35;85.81
13869;BME280;7004;48.206;16.402;2022-11-20T14:24:35;99226.59;;;5.76;88.74
13869;BME280;7004;48.206;16.402;2022-11-20T14:27:02;99218.56;;;5.79;89.26
13869;BME280;7004;48.206;16.402;2022-11-20T14:29:36;99217.34;;;5.69;90.27
13869;BME280;7004;48.206;16.402;2022-11-20T14:32:04;99219.19;;;5.50;90.28
13869;BME280;7004;48.206;16.402;2022-11-20T14:34:38;99218.56;;;5.62;90.35
13869;BME280;7004;48.206;16.402;2022-11-20T14:37:13;99220.34;;;5.79;89.50
13869;BME280;7004;48.206;16.402;2022-11-20T14:39:53;99224.31;;;5.86;89.22
13869;BME280;7004;48.206;16.402;2022-11-20T14:42:25;99219.47;;;5.78;90.29
13869;BME280;7004;48.206;16.402;2022-11-20T14:44:56;99222.53;;;5.53;90.54
13869;BME280;7004;48.206;16.402;2022-11-20T14:47:30;99220.41;;;5.60;91.24
13869;BME280;7004;48.206;16.402;2022-11-20T14:49:58;99216.56;;;5.50;92.35
13869;BME280;7004;48.206;16.402;2022-11-20T14:52:27;99215.88;;;5.29;93.59
13869;BME280;7004;48.206;16.402;2022-11-20T14:54:58;99216.59;;;5.32;93.29
13869;BME280;7004;48.206;16.402;2022-11-20T14:57:34;99210.56;;;5.30;94.38